sensor_id;sensor_type;location;lat;lon;timestamp;temperature;humidity
16271;DHT22;8243;49.048;8.396;2022-12-18T00:02:03;-7.80;99.90
16271;DHT22;8243;49.048;8.396;2022-12-18T00:04:28;-7.70;99.90
16271;DHT22;8243;49.048;8.396;2022-12-18T00:06:54;-7.80;99.90
16271;DHT22;8243;49.048;8.396;2022-12-18T00:09:20;-7.90;99.90
16271;DHT22;8243;49.048;8.396;2022-12-18T00:11:46;-7.80;99.90
16271;DHT22;8243;49.048;8.396;2022-12-18T00:14:12;-7.50;99.90
16271;DHT22;8243;49.048;8.396;2022-12-18T00:16:39;-7.60;99.90
16271;DHT22;8243;49.048;8.396;2022-12-18T00:19:05;-7.80;99.90
16271;DHT22;8243;49.048;8.396;2022-12-18T00:21:32;-7.70;99.90
16271;DHT22;8243;49.048;8.396;2022-12-18T00:23:59;-7.80;99.90
16271;DHT22;8243;49.048;8.396;2022-12-18T00:26:27;-7.60;99.90
16271;DHT22;8243;49.048;8.396;2022-12-18T00:28:53;-7.90;99.90
16271;DHT22;8243;49.048;8.396;2022-12-18T00:31:23;-7.80;99.90
16271;DHT22;8243;49.048;8.396;2022-12-18T00:33:48;-7.80;99.90
16271;DHT22;8243;49.048;8.396;2022-12-18T00:36:21;-7.70;99.90
16271;DHT22;8243;49.048;8.396;2022-12-18T00:38:47;-7.70;99.90
16271;DHT22;8243;49.048;8.396;2022-12-18T00:41:14;-7.80;99.90
16271;DHT22;8243;49.048;8.396;2022-12-18T00:44:01;-7.80;99.90
16271;DHT22;8243;49.048;8.396;2022-12-18T00:46:27;-7.60;99.90
16271;DHT22;8243;49.048;8.396;2022-12-18T00:48:52;-7.70;99.90
16271;DHT22;8243;49.048;8.396;2022-12-18T00:51:18;-7.80;99.90
16271;DHT22;8243;49.048;8.396;2022-12-18T00:53:43;-7.80;99.90
16271;DHT22;8243;49.048;8.396;2022-12-18T00:56:09;-7.80;99.90
16271;DHT22;8243;49.048;8.396;2022-12-18T00:58:34;-7.90;99.90
16271;DHT22;8243;49.048;8.396;2022-12-18T01:01:00;-7.70;99.90
16271;DHT22;8243;49.048;8.396;2022-12-18T01:03:26;-7.80;99.90
16271;DHT22;8243;49.048;8.396;2022-12-18T01:05:51;-7.70;99.90
16271;DHT22;8243;49.048;8.396;2022-12-18T01:08:17;-7.80;99.90
16271;DHT22;8243;49.048;8.396;2022-12-18T01:10:42;-7.80;99.90
16271;DHT22;8243;49.048;8.396;2022-12-18T01:13:08;-7.70;99.90
16271;DHT22;8243;49.048;8.396;2022-12-18T01:15:33;-7.60;99.90
16271;DHT22;8243;49.048;8.396;2022-12-18T01:17:59;-7.80;99.90
16271;DHT22;8243;49.048;8.396;2022-12-18T01:20:24;-7.60;99.90
16271;DHT22;8243;49.048;8.396;2022-12-18T01:22:50;-7.70;99.90
16271;DHT22;8243;49.048;8.396;2022-12-18T01:25:16;-7.70;99.90
16271;DHT22;8243;49.048;8.396;2022-12-18T01:27:41;-7.70;99.90
16271;DHT22;8243;49.048;8.396;2022-12-18T01:30:07;-7.80;99.90
16271;DHT22;8243;49.048;8.396;2022-12-18T01:32:33;-7.70;99.90
16271;DHT22;8243;49.048;8.396;2022-12-18T01:34:59;-7.80;99.90
16271;DHT22;8243;49.048;8.396;2022-12-18T01:37:24;-7.70;99.90
16271;DHT22;8243;49.048;8.396;2022-12-18T01:39:50;-7.70;99.90
16271;DHT22;8243;49.048;8.396;2022-12-18T01:42:17;-7.60;99.90
16271;DHT22;8243;49.048;8.396;2022-12-18T01:47:44;-7.70;99.90
16271;DHT22;8243;49.048;8.396;2022-12-18T01:50:18;-7.70;99.90
16271;DHT22;8243;49.048;8.396;2022-12-18T01:52:58;-7.70;99.90
16271;DHT22;8243;49.048;8.396;2022-12-18T01:55:29;-7.70;99.90
16271;DHT22;8243;49.048;8.396;2022-12-18T01:57:58;-7.70;99.90
16271;DHT22;8243;49.048;8.396;2022-12-18T02:00:25;-7.70;99.90
16271;DHT22;8243;49.048;8.396;2022-12-18T02:02:52;-7.70;99.90
16271;DHT22;8243;49.048;8.396;2022-12-18T02:13:41;-7.50;99.90
16271;DHT22;8243;49.048;8.396;2022-12-18T02:16:19;-7.90;99.90
16271;DHT22;8243;49.048;8.396;2022-12-18T02:18:49;-7.70;99.90
16271;DHT22;8243;49.048;8.396;2022-12-18T02:21:28;-7.70;99.90
16271;DHT22;8243;49.048;8.396;2022-12-18T02:26:56;-7.70;99.90
16271;DHT22;8243;49.048;8.396;2022-12-18T02:29:26;-7.80;99.90
16271;DHT22;8243;49.048;8.396;2022-12-18T02:32:00;-7.70;99.90
16271;DHT22;8243;49.048;8.396;2022-12-18T02:34:30;-7.70;99.90
16271;DHT22;8243;49.048;8.396;2022-12-18T02:36:58;-7.80;99.90
16271;DHT22;8243;49.048;8.396;2022-12-18T02:39:26;-8.00;99.90
16271;DHT22;8243;49.048;8.396;2022-12-18T02:41:53;-7.80;99.90
16271;DHT22;8243;49.048;8.396;2022-12-18T02:44:18;-8.00;99.90
16271;DHT22;8243;49.048;8.396;2022-12-18T02:46:48;-7.90;99.90
16271;DHT22;8243;49.048;8.396;2022-12-18T02:49:35;-8.10;99.90
16271;DHT22;8243;49.048;8.396;2022-12-18T02:58:10;-8.00;99.90
16271;DHT22;8243;49.048;8.396;2022-12-18T03:00:45;-8.10;99.90
16271;DHT22;8243;49.048;8.396;2022-12-18T03:03:14;-8.20;99.90
16271;DHT22;8243;49.048;8.396;2022-12-18T03:05:53;-8.20;99.90
16271;DHT22;8243;49.048;8.396;2022-12-18T03:08:24;-8.20;99.90
16271;DHT22;8243;49.048;8.396;2022-12-18T03:11:00;-8.10;99.90
16271;DHT22;8243;49.048;8.396;2022-12-18T03:13:40;-8.10;99.90
16271;DHT22;8243;49.048;8.396;2022-12-18T03:16:11;-8.30;99.90
16271;DHT22;8243;49.048;8.396;2022-12-18T03:18:48;-8.40;99.90
16271;DHT22;8243;49.048;8.396;2022-12-18T03:21:18;-8.40;99.90
16271;DHT22;8243;49.048;8.396;2022-12-18T03:23:49;-8.20;99.90
16271;DHT22;8243;49.048;8.396;2022-12-18T03:26:18;-8.50;99.90
16271;DHT22;8243;49.048;8.396;2022-12-18T03:28:53;-8.50;99.90
16271;DHT22;8243;49.048;8.396;2022-12-18T03:31:22;-8.70;99.90
16271;DHT22;8243;49.048;8.396;2022-12-18T03:33:57;-8.40;99.90
16271;DHT22;8243;49.048;8.396;2022-12-18T03:36:24;-8.60;99.90
16271;DHT22;8243;49.048;8.396;2022-12-18T03:38:51;-8.60;99.90
16271;DHT22;8243;49.048;8.396;2022-12-18T03:41:23;-8.70;99.90
16271;DHT22;8243;49.048;8.396;2022-12-18T03:44:09;-8.50;99.90
16271;DHT22;8243;49.048;8.396;2022-12-18T03:46:54;-8.70;99.90
16271;DHT22;8243;49.048;8.396;2022-12-18T03:49:33;-8.70;99.90
16271;DHT22;8243;49.048;8.396;2022-12-18T03:52:27;-9.00;99.90
16271;DHT22;8243;49.048;8.396;2022-12-18T03:54:52;-9.10;99.90
16271;DHT22;8243;49.048;8.396;2022-12-18T03:57:22;-9.00;99.90
16271;DHT22;8243;49.048;8.396;2022-12-18T03:59:54;-9.00;99.90
16271;DHT22;8243;49.048;8.396;2022-12-18T04:02:22;-9.10;99.90
16271;DHT22;8243;49.048;8.396;2022-12-18T04:04:52;-9.00;99.90
16271;DHT22;8243;49.048;8.396;2022-12-18T04:07:19;-9.10;99.90
16271;DHT22;8243;49.048;8.396;2022-12-18T04:09:45;-9.10;99.90
16271;DHT22;8243;49.048;8.396;2022-12-18T04:12:11;-9.10;99.90
16271;DHT22;8243;49.048;8.396;2022-12-18T04:14:37;-9.00;99.90
16271;DHT22;8243;49.048;8.396;2022-12-18T04:17:03;-9.10;99.90
16271;DHT22;8243;49.048;8.396;2022-12-18T04:19:28;-9.20;99.90
16271;DHT22;8243;49.048;8.396;2022-12-18T04:21:54;-9.30;99.90
16271;DHT22;8243;49.048;8.396;2022-12-18T04:24:20;-9.20;99.90
16271;DHT22;8243;49.048;8.396;2022-12-18T04:26:45;-9.20;99.90
16271;DHT22;8243;49.048;8.396;2022-12-18T04:29:11;-9.20;99.90
16271;DHT22;8243;49.048;8.396;2022-12-18T04:31:37;-8.90;99.90
16271;DHT22;8243;49.048;8.396;2022-12-18T04:34:03;-9.10;99.90
16271;DHT22;8243;49.048;8.396;2022-12-18T04:36:29;-9.10;99.90
16271;DHT22;8243;49.048;8.396;2022-12-18T04:38:55;-9.10;99.90
16271;DHT22;8243;49.048;8.396;2022-12-18T04:41:20;-9.00;99.90
16271;DHT22;8243;49.048;8.396;2022-12-18T04:43:46;-9.20;99.90
16271;DHT22;8243;49.048;8.396;2022-12-18T04:46:12;-9.20;99.90
16271;DHT22;8243;49.048;8.396;2022-12-18T04:48:37;-9.40;99.90
16271;DHT22;8243;49.048;8.396;2022-12-18T04:51:04;-9.50;99.90
16271;DHT22;8243;49.048;8.396;2022-12-18T04:53:29;-9.30;99.90
16271;DHT22;8243;49.048;8.396;2022-12-18T04:56:11;-9.50;99.90
16271;DHT22;8243;49.048;8.396;2022-12-18T04:58:38;-9.40;99.90
16271;DHT22;8243;49.048;8.396;2022-12-18T05:01:04;-9.70;99.90
16271;DHT22;8243;49.048;8.396;2022-12-18T05:03:30;-9.70;99.90
16271;DHT22;8243;49.048;8.396;2022-12-18T05:05:56;-9.70;99.90
16271;DHT22;8243;49.048;8.396;2022-12-18T05:08:22;-9.60;99.90
16271;DHT22;8243;49.048;8.396;2022-12-18T05:10:47;-9.60;99.90
16271;DHT22;8243;49.048;8.396;2022-12-18T05:13:13;-9.60;99.90
16271;DHT22;8243;49.048;8.396;2022-12-18T05:15:38;-9.70;99.90
16271;DHT22;8243;49.048;8.396;2022-12-18T05:18:04;-9.80;99.90
16271;DHT22;8243;49.048;8.396;2022-12-18T05:20:30;-9.70;99.90
16271;DHT22;8243;49.048;8.396;2022-12-18T05:22:56;-9.70;99.90
16271;DHT22;8243;49.048;8.396;2022-12-18T05:25:22;-9.70;99.90
16271;DHT22;8243;49.048;8.396;2022-12-18T05:27:48;-9.70;99.90
16271;DHT22;8243;49.048;8.396;2022-12-18T05:30:15;-9.80;99.90
16271;DHT22;8243;49.048;8.396;2022-12-18T05:32:41;-9.80;99.90
16271;DHT22;8243;49.048;8.396;2022-12-18T05:35:08;-10.00;99.90
16271;DHT22;8243;49.048;8.396;2022-12-18T05:37:34;-9.70;99.90
16271;DHT22;8243;49.048;8.396;2022-12-18T05:40:00;-10.10;99.90
16271;DHT22;8243;49.048;8.396;2022-12-18T05:42:25;-9.80;99.90
16271;DHT22;8243;49.048;8.396;2022-12-18T05:44:51;-10.00;99.90
16271;DHT22;8243;49.048;8.396;2022-12-18T05:47:16;-9.90;99.90
16271;DHT22;8243;49.048;8.396;2022-12-18T05:49:42;-9.80;99.90
16271;DHT22;8243;49.048;8.396;2022-12-18T05:52:08;-9.90;99.90
16271;DHT22;8243;49.048;8.396;2022-12-18T05:54:34;-9.60;99.90
16271;DHT22;8243;49.048;8.396;2022-12-18T05:56:59;-9.70;99.90
16271;DHT22;8243;49.048;8.396;2022-12-18T05:59:25;-9.40;99.90
16271;DHT22;8243;49.048;8.396;2022-12-18T06:01:50;-9.40;99.90
16271;DHT22;8243;49.048;8.396;2022-12-18T06:04:16;-9.30;99.90
16271;DHT22;8243;49.048;8.396;2022-12-18T06:06:42;-9.20;99.90
16271;DHT22;8243;49.048;8.396;2022-12-18T06:09:07;-9.20;99.90
16271;DHT22;8243;49.048;8.396;2022-12-18T06:11:36;-9.10;99.90
16271;DHT22;8243;49.048;8.396;2022-12-18T06:14:02;-9.00;99.90
16271;DHT22;8243;49.048;8.396;2022-12-18T06:16:30;-9.00;99.90
16271;DHT22;8243;49.048;8.396;2022-12-18T06:18:57;-9.00;99.90
16271;DHT22;8243;49.048;8.396;2022-12-18T06:21:22;-8.80;99.90
16271;DHT22;8243;49.048;8.396;2022-12-18T06:23:48;-8.80;99.90
16271;DHT22;8243;49.048;8.396;2022-12-18T06:26:15;-8.70;99.90
16271;DHT22;8243;49.048;8.396;2022-12-18T06:28:41;-8.50;99.90
16271;DHT22;8243;49.048;8.396;2022-12-18T06:31:07;-8.70;99.90
16271;DHT22;8243;49.048;8.396;2022-12-18T06:33:33;-8.40;99.90
16271;DHT22;8243;49.048;8.396;2022-12-18T06:36:09;-8.30;99.90
16271;DHT22;8243;49.048;8.396;2022-12-18T06:38:36;-8.30;99.90
16271;DHT22;8243;49.048;8.396;2022-12-18T06:41:13;-8.40;99.90
16271;DHT22;8243;49.048;8.396;2022-12-18T06:43:39;-8.10;99.90
16271;DHT22;8243;49.048;8.396;2022-12-18T06:46:05;-8.00;99.90
16271;DHT22;8243;49.048;8.396;2022-12-18T06:48:32;-7.90;99.90
16271;DHT22;8243;49.048;8.396;2022-12-18T06:50:57;-7.60;99.90
16271;DHT22;8243;49.048;8.396;2022-12-18T06:53:23;-7.70;99.90
16271;DHT22;8243;49.048;8.396;2022-12-18T06:55:49;-7.60;99.90
16271;DHT22;8243;49.048;8.396;2022-12-18T06:58:15;-7.40;99.90
16271;DHT22;8243;49.048;8.396;2022-12-18T07:00:40;-7.40;99.90
16271;DHT22;8243;49.048;8.396;2022-12-18T07:03:06;-7.40;99.90
16271;DHT22;8243;49.048;8.396;2022-12-18T07:05:31;-7.20;99.90
16271;DHT22;8243;49.048;8.396;2022-12-18T07:07:58;-7.10;99.90
16271;DHT22;8243;49.048;8.396;2022-12-18T07:10:24;-7.20;99.90
16271;DHT22;8243;49.048;8.396;2022-12-18T07:12:49;-7.10;99.90
16271;DHT22;8243;49.048;8.396;2022-12-18T07:15:15;-7.30;99.90
16271;DHT22;8243;49.048;8.396;2022-12-18T07:17:41;-7.20;99.90
16271;DHT22;8243;49.048;8.396;2022-12-18T07:20:07;-7.00;99.90
16271;DHT22;8243;49.048;8.396;2022-12-18T07:22:32;-7.20;99.90
16271;DHT22;8243;49.048;8.396;2022-12-18T07:24:58;-7.20;99.90
16271;DHT22;8243;49.048;8.396;2022-12-18T07:27:24;-7.10;99.90
16271;DHT22;8243;49.048;8.396;2022-12-18T07:29:49;-7.20;99.90
16271;DHT22;8243;49.048;8.396;2022-12-18T07:32:15;-7.20;99.90
16271;DHT22;8243;49.048;8.396;2022-12-18T07:34:41;-7.20;99.90
16271;DHT22;8243;49.048;8.396;2022-12-18T07:37:06;-7.00;99.90
16271;DHT22;8243;49.048;8.396;2022-12-18T07:39:32;-7.00;99.90
16271;DHT22;8243;49.048;8.396;2022-12-18T07:41:58;-6.90;99.90
16271;DHT22;8243;49.048;8.396;2022-12-18T07:44:42;-6.90;99.90
16271;DHT22;8243;49.048;8.396;2022-12-18T07:47:07;-7.00;99.90
16271;DHT22;8243;49.048;8.396;2022-12-18T07:49:33;-6.80;99.90
16271;DHT22;8243;49.048;8.396;2022-12-18T07:51:58;-6.80;99.90
16271;DHT22;8243;49.048;8.396;2022-12-18T07:54:24;-6.80;99.90
16271;DHT22;8243;49.048;8.396;2022-12-18T07:56:51;-6.60;99.90
16271;DHT22;8243;49.048;8.396;2022-12-18T07:59:17;-6.40;99.90
16271;DHT22;8243;49.048;8.396;2022-12-18T08:01:43;-6.50;99.90
16271;DHT22;8243;49.048;8.396;2022-12-18T08:04:09;-6.50;99.90
16271;DHT22;8243;49.048;8.396;2022-12-18T08:06:34;-6.20;99.90
16271;DHT22;8243;49.048;8.396;2022-12-18T08:09:00;-6.30;99.90
16271;DHT22;8243;49.048;8.396;2022-12-18T08:11:27;-6.20;99.90
16271;DHT22;8243;49.048;8.396;2022-12-18T08:13:54;-6.20;99.90
16271;DHT22;8243;49.048;8.396;2022-12-18T08:16:20;-6.00;99.90
16271;DHT22;8243;49.048;8.396;2022-12-18T08:18:46;-6.00;99.90
16271;DHT22;8243;49.048;8.396;2022-12-18T08:21:14;-5.90;99.90
16271;DHT22;8243;49.048;8.396;2022-12-18T08:23:41;-5.90;99.90
16271;DHT22;8243;49.048;8.396;2022-12-18T08:26:07;-6.10;99.90
16271;DHT22;8243;49.048;8.396;2022-12-18T08:28:33;-5.80;99.90
16271;DHT22;8243;49.048;8.396;2022-12-18T08:30:58;-6.00;99.90
16271;DHT22;8243;49.048;8.396;2022-12-18T08:33:24;-5.70;99.90
16271;DHT22;8243;49.048;8.396;2022-12-18T08:35:51;-5.60;99.90
16271;DHT22;8243;49.048;8.396;2022-12-18T08:38:17;-5.70;99.90
16271;DHT22;8243;49.048;8.396;2022-12-18T08:40:43;-5.50;99.90
16271;DHT22;8243;49.048;8.396;2022-12-18T08:43:10;-5.60;99.90
16271;DHT22;8243;49.048;8.396;2022-12-18T08:45:54;-5.50;99.90
16271;DHT22;8243;49.048;8.396;2022-12-18T08:48:20;-5.40;99.90
16271;DHT22;8243;49.048;8.396;2022-12-18T08:50:57;-5.50;99.90
16271;DHT22;8243;49.048;8.396;2022-12-18T08:53:23;-5.20;99.90
16271;DHT22;8243;49.048;8.396;2022-12-18T08:55:49;-5.40;99.90
16271;DHT22;8243;49.048;8.396;2022-12-18T08:58:15;-5.30;99.90
16271;DHT22;8243;49.048;8.396;2022-12-18T09:00:40;-5.20;99.90
16271;DHT22;8243;49.048;8.396;2022-12-18T09:03:14;-5.50;99.90
16271;DHT22;8243;49.048;8.396;2022-12-18T09:05:40;-5.30;99.90
16271;DHT22;8243;49.048;8.396;2022-12-18T09:08:06;-5.50;99.90
16271;DHT22;8243;49.048;8.396;2022-12-18T09:10:31;-5.40;99.90
16271;DHT22;8243;49.048;8.396;2022-12-18T09:12:57;-5.20;99.90
16271;DHT22;8243;49.048;8.396;2022-12-18T09:15:23;-5.30;99.90
16271;DHT22;8243;49.048;8.396;2022-12-18T09:17:48;-5.50;99.90
16271;DHT22;8243;49.048;8.396;2022-12-18T09:20:15;-5.10;99.90
16271;DHT22;8243;49.048;8.396;2022-12-18T09:22:41;-5.10;99.90
16271;DHT22;8243;49.048;8.396;2022-12-18T09:25:07;-5.10;99.90
16271;DHT22;8243;49.048;8.396;2022-12-18T09:27:35;-4.70;99.90
16271;DHT22;8243;49.048;8.396;2022-12-18T09:30:01;-4.50;99.90
16271;DHT22;8243;49.048;8.396;2022-12-18T09:32:27;-4.30;99.90
16271;DHT22;8243;49.048;8.396;2022-12-18T09:34:52;-4.30;99.90
16271;DHT22;8243;49.048;8.396;2022-12-18T09:37:18;-4.10;99.90
16271;DHT22;8243;49.048;8.396;2022-12-18T09:39:43;-4.20;99.90
16271;DHT22;8243;49.048;8.396;2022-12-18T09:42:20;-4.30;99.90
16271;DHT22;8243;49.048;8.396;2022-12-18T09:44:50;-4.40;99.90
16271;DHT22;8243;49.048;8.396;2022-12-18T09:47:21;-4.20;99.90
16271;DHT22;8243;49.048;8.396;2022-12-18T09:49:55;-4.10;99.90
16271;DHT22;8243;49.048;8.396;2022-12-18T09:52:26;-4.00;99.90
16271;DHT22;8243;49.048;8.396;2022-12-18T09:55:25;-4.00;99.90
16271;DHT22;8243;49.048;8.396;2022-12-18T09:57:59;-3.90;99.90
16271;DHT22;8243;49.048;8.396;2022-12-18T10:00:26;-3.70;99.90
16271;DHT22;8243;49.048;8.396;2022-12-18T10:02:56;-3.40;99.90
16271;DHT22;8243;49.048;8.396;2022-12-18T10:10:53;-3.20;99.90
16271;DHT22;8243;49.048;8.396;2022-12-18T10:13:37;-3.30;99.90
16271;DHT22;8243;49.048;8.396;2022-12-18T10:16:09;-3.10;99.90
16271;DHT22;8243;49.048;8.396;2022-12-18T10:21:52;-3.10;99.90
16271;DHT22;8243;49.048;8.396;2022-12-18T10:24:29;-2.80;99.90
16271;DHT22;8243;49.048;8.396;2022-12-18T10:27:26;-2.50;99.90
16271;DHT22;8243;49.048;8.396;2022-12-18T10:29:51;-2.20;99.90
16271;DHT22;8243;49.048;8.396;2022-12-18T10:32:19;-2.30;99.90
16271;DHT22;8243;49.048;8.396;2022-12-18T10:34:49;-2.30;99.90
16271;DHT22;8243;49.048;8.396;2022-12-18T10:37:20;-2.30;99.90
16271;DHT22;8243;49.048;8.396;2022-12-18T10:40:04;-2.30;99.90
16271;DHT22;8243;49.048;8.396;2022-12-18T10:42:31;-2.40;99.90
16271;DHT22;8243;49.048;8.396;2022-12-18T10:45:26;-2.50;99.90
16271;DHT22;8243;49.048;8.396;2022-12-18T10:47:51;-2.50;99.90
16271;DHT22;8243;49.048;8.396;2022-12-18T10:50:33;-2.20;99.90
16271;DHT22;8243;49.048;8.396;2022-12-18T10:53:01;-2.50;99.90
16271;DHT22;8243;49.048;8.396;2022-12-18T10:55:35;-2.40;99.90
16271;DHT22;8243;49.048;8.396;2022-12-18T11:01:03;-2.00;99.90
16271;DHT22;8243;49.048;8.396;2022-12-18T11:03:41;-2.30;99.90
16271;DHT22;8243;49.048;8.396;2022-12-18T11:08:32;-2.30;99.90
16271;DHT22;8243;49.048;8.396;2022-12-18T11:10:58;-2.20;99.90
16271;DHT22;8243;49.048;8.396;2022-12-18T11:13:26;-2.50;99.90
16271;DHT22;8243;49.048;8.396;2022-12-18T11:15:53;-2.60;99.90
16271;DHT22;8243;49.048;8.396;2022-12-18T11:18:26;-2.50;99.90
16271;DHT22;8243;49.048;8.396;2022-12-18T11:20:58;-2.70;99.90
16271;DHT22;8243;49.048;8.396;2022-12-18T11:23:25;-2.30;99.90
16271;DHT22;8243;49.048;8.396;2022-12-18T11:26:03;-2.60;99.90
16271;DHT22;8243;49.048;8.396;2022-12-18T11:28:38;-2.00;99.90
16271;DHT22;8243;49.048;8.396;2022-12-18T11:31:25;-1.70;99.90
16271;DHT22;8243;49.048;8.396;2022-12-18T11:34:14;-1.70;99.90
16271;DHT22;8243;49.048;8.396;2022-12-18T11:36:45;-1.70;99.20
16271;DHT22;8243;49.048;8.396;2022-12-18T11:39:37;-1.90;98.70
16271;DHT22;8243;49.048;8.396;2022-12-18T11:42:24;-1.60;97.30
16271;DHT22;8243;49.048;8.396;2022-12-18T11:50:33;-1.30;99.10
16271;DHT22;8243;49.048;8.396;2022-12-18T11:52:59;-1.30;92.40
16271;DHT22;8243;49.048;8.396;2022-12-18T11:55:28;-1.40;92.10
16271;DHT22;8243;49.048;8.396;2022-12-18T12:00:43;-1.00;94.60
16271;DHT22;8243;49.048;8.396;2022-12-18T12:06:17;-0.80;91.70
16271;DHT22;8243;49.048;8.396;2022-12-18T12:12:07;-1.10;87.90
16271;DHT22;8243;49.048;8.396;2022-12-18T12:18:08;-0.90;92.40
16271;DHT22;8243;49.048;8.396;2022-12-18T12:23:32;-0.90;86.90
16271;DHT22;8243;49.048;8.396;2022-12-18T12:35:29;-1.90;83.30
16271;DHT22;8243;49.048;8.396;2022-12-18T12:37:51;-2.10;85.60
16271;DHT22;8243;49.048;8.396;2022-12-18T12:40:23;-1.90;87.50
16271;DHT22;8243;49.048;8.396;2022-12-18T12:42:54;-1.50;89.80
16271;DHT22;8243;49.048;8.396;2022-12-18T12:46:18;-2.10;83.10
16271;DHT22;8243;49.048;8.396;2022-12-18T12:48:50;-2.10;87.70
16271;DHT22;8243;49.048;8.396;2022-12-18T12:51:25;-2.00;86.40
16271;DHT22;8243;49.048;8.396;2022-12-18T12:53:52;-2.40;87.80
16271;DHT22;8243;49.048;8.396;2022-12-18T12:56:20;-2.40;90.80
16271;DHT22;8243;49.048;8.396;2022-12-18T12:58:57;-2.20;91.70
16271;DHT22;8243;49.048;8.396;2022-12-18T13:01:32;-1.90;90.30
16271;DHT22;8243;49.048;8.396;2022-12-18T13:07:03;-1.70;89.30
16271;DHT22;8243;49.048;8.396;2022-12-18T13:09:32;-1.60;88.00
16271;DHT22;8243;49.048;8.396;2022-12-18T13:12:09;-1.60;85.90
16271;DHT22;8243;49.048;8.396;2022-12-18T13:15:12;-2.10;87.30
16271;DHT22;8243;49.048;8.396;2022-12-18T13:17:38;-2.10;86.90
16271;DHT22;8243;49.048;8.396;2022-12-18T13:20:14;-1.80;90.40
16271;DHT22;8243;49.048;8.396;2022-12-18T13:22:48;-1.90;90.10
16271;DHT22;8243;49.048;8.396;2022-12-18T13:25:35;-1.80;88.20
16271;DHT22;8243;49.048;8.396;2022-12-18T13:28:15;-1.90;87.70
16271;DHT22;8243;49.048;8.396;2022-12-18T13:30:43;-1.90;88.00
16271;DHT22;8243;49.048;8.396;2022-12-18T13:40:55;-2.30;93.50
16271;DHT22;8243;49.048;8.396;2022-12-18T13:43:22;-2.20;95.20
16271;DHT22;8243;49.048;8.396;2022-12-18T13:48:26;-2.10;97.50
16271;DHT22;8243;49.048;8.396;2022-12-18T13:51:06;-2.20;97.10
16271;DHT22;8243;49.048;8.396;2022-12-18T13:56:26;-2.40;99.40
16271;DHT22;8243;49.048;8.396;2022-12-18T13:59:24;-2.60;99.90
16271;DHT22;8243;49.048;8.396;2022-12-18T14:01:54;-2.50;99.90
16271;DHT22;8243;49.048;8.396;2022-12-18T14:04:28;-2.70;99.90
16271;DHT22;8243;49.048;8.396;2022-12-18T14:07:05;-2.70;99.90
16271;DHT22;8243;49.048;8.396;2022-12-18T14:09:36;-2.70;99.90
16271;DHT22;8243;49.048;8.396;2022-12-18T14:12:02;-2.60;99.90
16271;DHT22;8243;49.048;8.396;2022-12-18T14:14:49;-2.80;99.90
16271;DHT22;8243;49.048;8.396;2022-12-18T14:17:16;-2.70;99.90
16271;DHT22;8243;49.048;8.396;2022-12-18T14:19:44;-2.80;99.90
16271;DHT22;8243;49.048;8.396;2022-12-18T14:22:23;-3.00;99.90
16271;DHT22;8243;49.048;8.396;2022-12-18T14:27:45;-2.80;99.90
16271;DHT22;8243;49.048;8.396;2022-12-18T14:30:32;-3.00;99.90
16271;DHT22;8243;49.048;8.396;2022-12-18T14:33:01;-2.80;99.90
16271;DHT22;8243;49.048;8.396;2022-12-18T14:35:27;-2.90;99.90
16271;DHT22;8243;49.048;8.396;2022-12-18T14:37:52;-2.80;99.90
16271;DHT22;8243;49.048;8.396;2022-12-18T14:40:18;-3.10;99.90
16271;DHT22;8243;49.048;8.396;2022-12-18T14:42:43;-3.30;99.90
16271;DHT22;8243;49.048;8.396;2022-12-18T14:45:39;-3.20;99.90
16271;DHT22;8243;49.048;8.396;2022-12-18T14:48:39;-3.20;99.90
16271;DHT22;8243;49.048;8.396;2022-12-18T14:51:15;-3.30;99.90
16271;DHT22;8243;49.048;8.396;2022-12-18T14:53:54;-3.30;99.90
16271;DHT22;8243;49.048;8.396;2022-12-18T14:56:26;-3.30;99.90
16271;DHT22;8243;49.048;8.396;2022-12-18T14:58:55;-3.30;99.90
16271;DHT22;8243;49.048;8.396;2022-12-18T15:01:33;-3.30;99.90
16271;DHT22;8243;49.048;8.396;2022-12-18T15:04:00;-3.50;99.90
16271;DHT22;8243;49.048;8.396;2022-12-18T15:06:30;-3.60;99.90
16271;DHT22;8243;49.048;8.396;2022-12-18T15:08:58;-3.60;99.90
16271;DHT22;8243;49.048;8.396;2022-12-18T15:14:39;-3.60;99.90
16271;DHT22;8243;49.048;8.396;2022-12-18T15:17:18;-3.50;99.90
16271;DHT22;8243;49.048;8.396;2022-12-18T15:19:45;-3.60;99.90
16271;DHT22;8243;49.048;8.396;2022-12-18T15:22:24;-3.60;99.90
16271;DHT22;8243;49.048;8.396;2022-12-18T15:24:51;-3.70;99.90
16271;DHT22;8243;49.048;8.396;2022-12-18T15:27:35;-3.90;99.90
16271;DHT22;8243;49.048;8.396;2022-12-18T15:32:39;-3.80;99.90
16271;DHT22;8243;49.048;8.396;2022-12-18T15:37:39;-3.80;99.90
16271;DHT22;8243;49.048;8.396;2022-12-18T15:40:05;-3.90;99.90
16271;DHT22;8243;49.048;8.396;2022-12-18T15:42:33;-4.00;99.90
16271;DHT22;8243;49.048;8.396;2022-12-18T15:45:17;-3.80;99.90
16271;DHT22;8243;49.048;8.396;2022-12-18T15:47:43;-3.90;99.90
16271;DHT22;8243;49.048;8.396;2022-12-18T15:50:09;-4.00;99.90
16271;DHT22;8243;49.048;8.396;2022-12-18T15:52:40;-3.90;99.90
16271;DHT22;8243;49.048;8.396;2022-12-18T15:55:14;-3.80;99.90
16271;DHT22;8243;49.048;8.396;2022-12-18T15:57:59;-3.80;99.90
16271;DHT22;8243;49.048;8.396;2022-12-18T16:00:24;-3.90;99.90
16271;DHT22;8243;49.048;8.396;2022-12-18T16:02:50;-3.80;99.90
16271;DHT22;8243;49.048;8.396;2022-12-18T16:05:17;-3.90;99.90
16271;DHT22;8243;49.048;8.396;2022-12-18T16:07:44;-3.90;99.90
16271;DHT22;8243;49.048;8.396;2022-12-18T16:10:10;-3.90;99.90
16271;DHT22;8243;49.048;8.396;2022-12-18T16:12:36;-3.60;99.90
16271;DHT22;8243;49.048;8.396;2022-12-18T16:15:03;-3.80;99.90
16271;DHT22;8243;49.048;8.396;2022-12-18T16:17:29;-3.70;99.90
16271;DHT22;8243;49.048;8.396;2022-12-18T16:19:55;-3.50;99.90
16271;DHT22;8243;49.048;8.396;2022-12-18T16:22:24;-3.60;99.90
16271;DHT22;8243;49.048;8.396;2022-12-18T16:24:51;-3.60;99.90
16271;DHT22;8243;49.048;8.396;2022-12-18T16:27:17;-3.70;99.90
16271;DHT22;8243;49.048;8.396;2022-12-18T16:29:43;-3.40;99.90
16271;DHT22;8243;49.048;8.396;2022-12-18T16:32:14;-3.60;99.90
16271;DHT22;8243;49.048;8.396;2022-12-18T16:34:40;-3.80;99.90
16271;DHT22;8243;49.048;8.396;2022-12-18T16:37:09;-3.60;99.90
16271;DHT22;8243;49.048;8.396;2022-12-18T16:39:36;-3.60;99.90
16271;DHT22;8243;49.048;8.396;2022-12-18T16:42:17;-3.50;99.90
16271;DHT22;8243;49.048;8.396;2022-12-18T16:44:45;-3.70;99.90
16271;DHT22;8243;49.048;8.396;2022-12-18T16:47:11;-3.40;99.90
16271;DHT22;8243;49.048;8.396;2022-12-18T16:49:36;-3.50;99.90
16271;DHT22;8243;49.048;8.396;2022-12-18T16:52:06;-3.50;99.90
16271;DHT22;8243;49.048;8.396;2022-12-18T16:54:32;-3.40;99.90
16271;DHT22;8243;49.048;8.396;2022-12-18T16:57:01;-3.50;99.90
16271;DHT22;8243;49.048;8.396;2022-12-18T16:59:27;-3.40;99.90
16271;DHT22;8243;49.048;8.396;2022-12-18T17:01:53;-3.30;99.90
16271;DHT22;8243;49.048;8.396;2022-12-18T17:04:20;-3.50;99.90
16271;DHT22;8243;49.048;8.396;2022-12-18T17:06:45;-3.70;99.90
16271;DHT22;8243;49.048;8.396;2022-12-18T17:09:16;-3.40;99.90
16271;DHT22;8243;49.048;8.396;2022-12-18T17:11:43;-3.50;99.90
16271;DHT22;8243;49.048;8.396;2022-12-18T17:14:12;-3.60;99.90
16271;DHT22;8243;49.048;8.396;2022-12-18T17:16:38;-3.70;99.90
16271;DHT22;8243;49.048;8.396;2022-12-18T17:19:03;-3.80;99.90
16271;DHT22;8243;49.048;8.396;2022-12-18T17:21:29;-3.60;99.90
16271;DHT22;8243;49.048;8.396;2022-12-18T17:23:58;-3.50;99.90
16271;DHT22;8243;49.048;8.396;2022-12-18T17:26:24;-3.80;99.90
16271;DHT22;8243;49.048;8.396;2022-12-18T17:28:49;-3.70;99.90
16271;DHT22;8243;49.048;8.396;2022-12-18T17:31:20;-3.70;99.90
16271;DHT22;8243;49.048;8.396;2022-12-18T17:33:46;-3.80;99.90